createdAt,value
2023-05-21T00:00:12.605Z,6.03
2023-05-21T00:10:34.388Z,6.28
2023-05-21T00:20:56.235Z,5.10
2023-05-21T00:31:19.198Z,5.67
2023-05-21T00:41:43.044Z,5.97
2023-05-21T00:52:05.522Z,5.95
2023-05-21T01:02:27.463Z,6.23
2023-05-21T01:12:50.956Z,6.43
2023-05-21T01:23:13.338Z,6.30
2023-05-21T01:33:45.447Z,6.47
2023-05-21T01:44:09.142Z,5.83
2023-05-21T01:54:30.988Z,5.70
2023-05-21T02:04:52.817Z,5.53
2023-05-21T02:15:14.808Z,5.60
2023-05-21T02:25:37.117Z,6.05
2023-05-21T02:35:59.081Z,5.68
2023-05-21T02:46:21.078Z,6.00
2023-05-21T02:56:43.030Z,5.70
2023-05-21T03:07:05.704Z,6.38
2023-05-21T03:17:27.468Z,6.07
2023-05-21T03:27:49.361Z,6.57
2023-05-21T03:38:11.194Z,6.05
2023-05-21T03:48:32.977Z,5.90
2023-05-21T03:58:54.794Z,5.77
2023-05-21T04:09:16.879Z,5.68
2023-05-21T04:19:38.932Z,5.30
2023-05-21T04:30:00.871Z,6.53
2023-05-21T04:40:24.644Z,6.50
2023-05-21T04:50:46.773Z,5.22
2023-05-21T05:01:09.083Z,6.63
2023-05-21T05:11:31.072Z,6.70
2023-05-21T05:21:52.958Z,6.40
2023-05-21T05:32:14.874Z,6.70
2023-05-21T05:42:36.775Z,6.27
2023-05-21T05:52:58.690Z,7.20
2023-05-21T06:03:20.625Z,7.13
2023-05-21T06:13:22.218Z,7.60
2023-05-21T06:23:23.732Z,6.40
2023-05-21T06:33:27.278Z,8.00
2023-05-21T06:43:28.924Z,7.80
2023-05-21T06:53:30.420Z,6.77
2023-05-21T07:03:32.244Z,4.95
2023-05-21T07:13:35.796Z,7.93
2023-05-21T07:31:08.427Z,8.70
2023-05-21T07:41:28.493Z,8.68
2023-05-21T07:52:08.613Z,8.47
2023-05-21T08:02:49.646Z,7.83
2023-05-21T08:13:30.302Z,6.35
2023-05-21T08:24:10.628Z,8.43
2023-05-21T08:34:53.232Z,8.43
2023-05-21T08:45:40.562Z,7.32
2023-05-21T08:56:21.404Z,8.27
2023-05-21T09:07:03.215Z,8.87
2023-05-21T09:17:48.150Z,9.30
2023-05-21T09:28:29.553Z,10.10
2023-05-21T09:39:16.296Z,10.40
2023-05-21T09:50:03.415Z,8.80
2023-05-21T10:00:45.632Z,7.22
2023-05-21T10:11:27.474Z,10.20
2023-05-21T10:22:09.307Z,9.67
2023-05-21T10:32:50.377Z,10.77
2023-05-21T10:44:02.486Z,10.97
2023-05-21T10:54:48.748Z,8.03
2023-05-21T11:05:09.156Z,10.97
2023-05-21T11:15:29.695Z,9.65
2023-05-21T11:26:02.267Z,10.33
2023-05-21T11:36:22.819Z,10.00
2023-05-21T11:46:43.565Z,9.60
2023-05-21T11:57:07.987Z,10.07
2023-05-21T12:07:31.639Z,10.30
2023-05-21T12:17:53.288Z,10.90
2023-05-21T12:28:13.818Z,9.75
2023-05-21T12:38:34.596Z,11.63
2023-05-21T12:48:58.196Z,11.47
2023-05-21T12:59:18.376Z,10.13
2023-05-21T13:09:38.620Z,11.20
2023-05-21T13:20:20.575Z,10.23
2023-05-21T13:30:40.963Z,9.23
2023-05-21T13:41:21.562Z,7.47
2023-05-21T13:51:42.178Z,10.00
2023-05-21T14:02:02.428Z,19.25
2023-05-21T14:12:22.821Z,11.23
2023-05-21T14:22:43.360Z,11.27
2023-05-21T14:33:03.593Z,10.87
2023-05-21T14:43:24.058Z,11.32
2023-05-21T14:53:44.024Z,11.37
2023-05-21T15:04:24.530Z,9.43
2023-05-21T15:15:06.323Z,11.45
2023-05-21T15:25:26.389Z,11.03
2023-05-21T15:35:46.736Z,12.80
2023-05-21T15:46:07.348Z,11.32
2023-05-21T15:56:27.887Z,11.17
2023-05-21T16:06:48.585Z,8.90
2023-05-21T16:17:09.058Z,8.60
2023-05-21T16:27:29.758Z,8.90
2023-05-21T16:37:53.377Z,8.57
2023-05-21T16:48:35.525Z,10.83
2023-05-21T16:58:57.387Z,10.23
2023-05-21T17:09:18.827Z,10.83
2023-05-21T17:19:39.429Z,10.97
2023-05-21T17:29:59.772Z,10.80
2023-05-21T17:40:20.378Z,11.57
2023-05-21T17:51:01.092Z,13.13
2023-05-21T18:01:41.728Z,12.18
2023-05-21T18:12:22.565Z,11.83
2023-05-21T18:23:03.083Z,11.50
2023-05-21T18:33:43.398Z,12.60
2023-05-21T18:44:24.323Z,11.25
2023-05-21T18:55:06.632Z,12.40
2023-05-21T19:05:47.285Z,11.90
2023-05-21T19:16:27.627Z,12.52
2023-05-21T19:27:08.258Z,12.13
2023-05-21T19:37:48.666Z,13.27
2023-05-21T19:48:29.456Z,12.73
2023-05-21T19:59:11.480Z,12.70
2023-05-21T20:09:52.340Z,13.20
2023-05-21T20:20:34.552Z,13.73
2023-05-21T20:31:15.177Z,15.10
2023-05-21T20:41:56.198Z,13.70
2023-05-21T20:52:36.811Z,13.90
2023-05-21T21:03:18.440Z,13.85
2023-05-21T21:13:59.369Z,14.30
2023-05-21T21:24:40.035Z,14.13
2023-05-21T21:35:20.888Z,15.02
2023-05-21T21:46:01.458Z,14.27
2023-05-21T21:56:42.469Z,15.50
2023-05-21T22:07:23.677Z,16.77
2023-05-21T22:18:04.903Z,15.90
2023-05-21T22:28:45.056Z,15.50
2023-05-21T22:39:25.743Z,15.57
2023-05-21T22:50:08.112Z,15.32
2023-05-21T23:00:48.577Z,13.67
2023-05-21T23:11:29.368Z,13.77
2023-05-21T23:22:09.830Z,12.30
2023-05-21T23:32:50.851Z,12.07
2023-05-21T23:43:31.607Z,13.67
2023-05-21T23:54:12.128Z,13.40
